Time;durP1;ratioP1;P1;durP2;ratioP2;P2;SDS_P1;SDS_P2;PMS_P1;PMS_P2;Temp;Humidity;BMP_temperature;BMP_pressure;BME280_temperature;BME280_humidity;BME280_pressure;Samples;Min_cycle;Max_cycle;Signal;HPM_P1;HPM_P2
2023/09/16 00:00:57;;;;;;;1999.90;999.90;;;;;;;;;;5069830;28;20485;-84
2023/09/16 00:03:23;;;;;;;1999.90;999.90;;;;;;;;;;5068328;28;20044;-83
2023/09/16 00:05:50;;;;;;;1999.90;999.90;;;;;;;;;;5069401;28;20577;-84
2023/09/16 00:08:18;;;;;;;1999.90;999.90;;;;;;;;;;5069503;28;20057;-84
2023/09/16 00:10:44;;;;;;;1999.90;999.90;;;;;;;;;;5069663;28;20045;-84
2023/09/16 00:13:11;;;;;;;1999.90;999.90;;;;;;;;;;5069640;28;20040;-84
2023/09/16 00:15:37;;;;;;;1999.90;999.90;;;;;;;;;;5071665;28;20036;-86
2023/09/16 00:18:04;;;;;;;1999.90;999.90;;;;;;;;;;5073208;28;20044;-84
2023/09/16 00:20:31;;;;;;;1999.90;999.90;;;;;;;;;;5072221;28;20040;-84
2023/09/16 00:22:57;;;;;;;1999.90;999.90;;;;;;;;;;5072878;28;20492;-85
2023/09/16 00:25:25;;;;;;;1999.90;999.90;;;;;;;;;;5073043;28;20044;-84
2023/09/16 00:27:52;;;;;;;1999.90;999.90;;;;;;;;;;5072517;28;20055;-83
2023/09/16 00:30:19;;;;;;;1999.90;999.90;;;;;;;;;;5071689;28;20438;-85
2023/09/16 00:32:45;;;;;;;1999.90;999.90;;;;;;;;;;5072758;28;20047;-83
2023/09/16 00:35:13;;;;;;;1999.90;999.90;;;;;;;;;;5072197;28;20056;-84
2023/09/16 00:37:41;;;;;;;1999.90;999.90;;;;;;;;;;5069304;28;20045;-85
2023/09/16 00:40:08;;;;;;;1999.90;999.90;;;;;;;;;;5072360;28;20078;-83
2023/09/16 00:42:38;;;;;;;1999.90;999.90;;;;;;;;;;5072631;28;20432;-85
2023/09/16 00:45:06;;;;;;;1999.90;999.90;;;;;;;;;;5072676;28;20044;-83
2023/09/16 00:47:33;;;;;;;1999.90;999.90;;;;;;;;;;5072119;28;20052;-85
2023/09/16 00:49:59;;;;;;;1999.90;999.90;;;;;;;;;;5071905;28;20102;-87
2023/09/16 00:52:26;;;;;;;1999.90;999.90;;;;;;;;;;5072058;28;20049;-84
2023/09/16 00:54:54;;;;;;;1999.90;999.90;;;;;;;;;;5072141;28;20049;-84
2023/09/16 00:57:20;;;;;;;1999.90;999.90;;;;;;;;;;5071932;28;20090;-84
2023/09/16 00:59:48;;;;;;;1999.90;999.90;;;;;;;;;;5072167;28;20044;-83
2023/09/16 01:02:15;;;;;;;1999.90;999.90;;;;;;;;;;5089873;22;20060;-91
2023/09/16 01:04:43;;;;;;;1999.90;999.90;;;;;;;;;;5082781;28;20058;-92
2023/09/16 01:07:10;;;;;;;1999.90;999.90;;;;;;;;;;5089025;28;20377;-92
2023/09/16 01:09:37;;;;;;;1999.90;999.90;;;;;;;;;;5085000;28;20055;-91
2023/09/16 01:12:04;;;;;;;1999.90;999.90;;;;;;;;;;5066701;28;20056;-92
2023/09/16 01:14:31;;;;;;;1999.90;999.90;;;;;;;;;;5082104;28;20097;-91
2023/09/16 01:17:01;;;;;;;1999.90;999.90;;;;;;;;;;5080446;28;20047;-90
2023/09/16 01:19:34;;;;;;;1999.90;999.90;;;;;;;;;;5083281;28;20515;-91
2023/09/16 01:22:02;;;;;;;1999.90;999.90;;;;;;;;;;5087977;28;20052;-90
2023/09/16 01:24:28;;;;;;;1999.90;999.90;;;;;;;;;;5082068;28;20138;-91
2023/09/16 01:26:57;;;;;;;1999.90;999.90;;;;;;;;;;5075713;28;20060;-90
2023/09/16 01:29:24;;;;;;;1999.90;999.90;;;;;;;;;;5083382;28;20045;-89
2023/09/16 01:31:50;;;;;;;1999.90;999.90;;;;;;;;;;5063126;28;20048;-92
2023/09/16 01:34:22;;;;;;;1999.90;999.90;;;;;;;;;;5049827;28;20058;-90
2023/09/16 01:36:52;;;;;;;1999.90;999.90;;;;;;;;;;5063076;28;20501;-89
2023/09/16 01:39:21;;;;;;;1999.90;999.90;;;;;;;;;;5079827;28;20551;-90
2023/09/16 01:41:48;;;;;;;1999.90;999.90;;;;;;;;;;5074079;28;20040;-91
2023/09/16 01:44:16;;;;;;;1999.90;999.90;;;;;;;;;;5061055;28;20055;-90
2023/09/16 01:46:43;;;;;;;1999.90;999.90;;;;;;;;;;5062634;28;20059;-89
2023/09/16 01:49:09;;;;;;;1999.90;999.90;;;;;;;;;;5079845;28;20051;-92
2023/09/16 01:51:36;;;;;;;1999.90;999.90;;;;;;;;;;5084219;28;20393;-90
2023/09/16 01:54:03;;;;;;;1999.90;999.90;;;;;;;;;;5084440;28;20048;-89
2023/09/16 01:56:30;;;;;;;1999.90;999.90;;;;;;;;;;5079258;28;20048;-93
2023/09/16 01:58:56;;;;;;;1999.90;999.90;;;;;;;;;;5088233;28;20121;-89
2023/09/16 02:01:24;;;;;;;1999.90;999.90;;;;;;;;;;5080013;28;20040;-90
2023/09/16 02:03:51;;;;;;;1999.90;999.90;;;;;;;;;;5081013;28;20058;-89
2023/09/16 02:06:20;;;;;;;1999.90;999.90;;;;;;;;;;5067614;28;20652;-89
2023/09/16 02:08:47;;;;;;;1999.90;999.90;;;;;;;;;;5063065;28;20053;-89
2023/09/16 02:11:13;;;;;;;1999.90;999.90;;;;;;;;;;5077753;28;20051;-89
2023/09/16 02:13:40;;;;;;;1999.90;999.90;;;;;;;;;;5082478;28;20048;-89
2023/09/16 02:16:06;;;;;;;1999.90;999.90;;;;;;;;;;5079576;28;20048;-90
2023/09/16 02:18:34;;;;;;;1999.90;999.90;;;;;;;;;;5080910;28;20048;-89
2023/09/16 02:21:01;;;;;;;1999.90;999.90;;;;;;;;;;5088317;28;20046;-89
2023/09/16 02:23:29;;;;;;;1999.90;999.90;;;;;;;;;;5073748;28;20135;-90
2023/09/16 02:26:00;;;;;;;1999.90;999.90;;;;;;;;;;5080564;28;20044;-90
2023/09/16 02:28:26;;;;;;;1999.90;999.90;;;;;;;;;;5076606;28;20052;-88
2023/09/16 02:30:53;;;;;;;1999.90;999.90;;;;;;;;;;5079284;28;20051;-90
2023/09/16 02:33:20;;;;;;;1999.90;999.90;;;;;;;;;;5079439;28;20052;-90
2023/09/16 02:35:48;;;;;;;1999.90;999.90;;;;;;;;;;5083434;28;20040;-90
2023/09/16 02:38:14;;;;;;;1999.90;999.90;;;;;;;;;;5078241;28;20498;-88
2023/09/16 02:40:41;;;;;;;1999.90;999.90;;;;;;;;;;5085174;28;20046;-89
2023/09/16 02:43:08;;;;;;;1999.90;999.90;;;;;;;;;;5077883;28;20056;-87
2023/09/16 02:45:39;;;;;;;1999.90;999.90;;;;;;;;;;5087541;28;20050;-91
2023/09/16 02:48:06;;;;;;;1999.90;999.90;;;;;;;;;;5080952;28;20055;-88
2023/09/16 02:50:34;;;;;;;1999.90;999.90;;;;;;;;;;5086777;28;20055;-89
2023/09/16 02:53:02;;;;;;;1999.90;999.90;;;;;;;;;;5074781;28;20051;-88
2023/09/16 02:55:28;;;;;;;1999.90;999.90;;;;;;;;;;5075403;28;20050;-88
2023/09/16 02:57:55;;;;;;;1999.90;999.90;;;;;;;;;;5086306;28;20052;-89
2023/09/16 03:00:21;;;;;;;1999.90;999.90;;;;;;;;;;5085739;28;20051;-88
2023/09/16 03:02:49;;;;;;;1999.90;999.90;;;;;;;;;;5081613;28;20048;-91
2023/09/16 03:05:15;;;;;;;1999.90;999.90;;;;;;;;;;5075625;28;20109;-89
2023/09/16 03:07:42;;;;;;;1999.90;999.90;;;;;;;;;;5080292;28;20048;-89
2023/09/16 03:10:10;;;;;;;1999.90;999.90;;;;;;;;;;5082062;28;20054;-89
2023/09/16 03:12:37;;;;;;;1999.90;999.90;;;;;;;;;;5079445;28;20369;-90
2023/09/16 03:15:04;;;;;;;1999.90;999.90;;;;;;;;;;5076757;28;20070;-89
2023/09/16 03:17:31;;;;;;;1999.90;999.90;;;;;;;;;;5066517;28;20044;-91
2023/09/16 03:19:58;;;;;;;1999.90;999.90;;;;;;;;;;5074771;28;20052;-89
2023/09/16 03:22:24;;;;;;;1999.90;999.90;;;;;;;;;;5083516;28;20052;-90
2023/09/16 03:24:51;;;;;;;1999.90;999.90;;;;;;;;;;5082261;28;20045;-90
2023/09/16 03:27:19;;;;;;;1999.90;999.90;;;;;;;;;;5080783;28;20397;-89
2023/09/16 03:29:45;;;;;;;1999.90;999.90;;;;;;;;;;5080073;28;20075;-89
2023/09/16 03:32:12;;;;;;;1999.90;999.90;;;;;;;;;;5080572;28;20052;-89
2023/09/16 03:34:43;;;;;;;1999.90;999.90;;;;;;;;;;5083623;28;20055;-88
2023/09/16 03:37:10;;;;;;;1999.90;999.90;;;;;;;;;;5077698;28;20737;-89
2023/09/16 03:39:37;;;;;;;1999.90;999.90;;;;;;;;;;5083337;28;20047;-89
2023/09/16 03:42:03;;;;;;;1999.90;999.90;;;;;;;;;;5064754;28;20056;-89
2023/09/16 03:44:31;;;;;;;1999.90;999.90;;;;;;;;;;5078228;28;20047;-90
2023/09/16 03:46:58;;;;;;;1999.90;999.90;;;;;;;;;;5082218;28;20044;-90
2023/09/16 03:49:24;;;;;;;1999.90;999.90;;;;;;;;;;5077788;28;20048;-90
2023/09/16 03:51:51;;;;;;;1999.90;999.90;;;;;;;;;;5088406;28;20051;-88
2023/09/16 03:54:17;;;;;;;1999.90;999.90;;;;;;;;;;5082646;28;20079;-90
2023/09/16 03:56:44;;;;;;;1999.90;999.90;;;;;;;;;;5066463;28;20821;-90
2023/09/16 03:59:11;;;;;;;1999.90;999.90;;;;;;;;;;5081425;28;20047;-91
2023/09/16 04:01:38;;;;;;;1999.90;999.90;;;;;;;;;;5084814;28;20048;-88
2023/09/16 04:04:06;;;;;;;1999.90;999.90;;;;;;;;;;5079599;28;20404;-90
2023/09/16 04:06:32;;;;;;;1999.90;999.90;;;;;;;;;;5088739;28;20051;-88
2023/09/16 04:09:00;;;;;;;1999.90;999.90;;;;;;;;;;5084147;28;20050;-89
2023/09/16 04:11:27;;;;;;;1999.90;999.90;;;;;;;;;;5087331;28;20051;-90
2023/09/16 04:13:54;;;;;;;1999.90;999.90;;;;;;;;;;5091562;28;20052;-90
2023/09/16 04:16:20;;;;;;;1999.90;999.90;;;;;;;;;;5089022;28;20066;-90
2023/09/16 04:18:48;;;;;;;1999.90;999.90;;;;;;;;;;5082459;28;20046;-89
2023/09/16 04:21:15;;;;;;;1999.90;999.90;;;;;;;;;;5088707;28;20135;-90
2023/09/16 04:23:41;;;;;;;1999.90;999.90;;;;;;;;;;5081967;28;20416;-90
2023/09/16 04:26:12;;;;;;;1999.90;999.90;;;;;;;;;;5079419;28;20049;-89
2023/09/16 04:28:38;;;;;;;1999.90;999.90;;;;;;;;;;5086263;28;20054;-89
2023/09/16 04:31:05;;;;;;;1999.90;999.90;;;;;;;;;;5081952;28;20497;-89
2023/09/16 04:33:31;;;;;;;1999.90;999.90;;;;;;;;;;5079485;28;20049;-89
2023/09/16 04:36:00;;;;;;;1999.90;999.90;;;;;;;;;;5088190;28;20055;-91
2023/09/16 04:38:28;;;;;;;1999.90;999.90;;;;;;;;;;5089102;28;20341;-89
2023/09/16 04:40:55;;;;;;;1999.90;999.90;;;;;;;;;;5080559;28;20048;-90
2023/09/16 04:43:21;;;;;;;1999.90;999.90;;;;;;;;;;5084140;28;20337;-90
2023/09/16 04:45:48;;;;;;;1999.90;999.90;;;;;;;;;;5081838;28;20451;-88
2023/09/16 04:48:16;;;;;;;1999.90;999.90;;;;;;;;;;5084029;28;20080;-90
2023/09/16 04:50:45;;;;;;;1999.90;999.90;;;;;;;;;;5081465;28;20048;-89
2023/09/16 04:53:13;;;;;;;1999.90;999.90;;;;;;;;;;5086004;28;20048;-88
2023/09/16 04:55:41;;;;;;;1999.90;999.90;;;;;;;;;;5080021;28;20060;-89
2023/09/16 04:58:07;;;;;;;1999.90;999.90;;;;;;;;;;5081568;28;20079;-89
2023/09/16 05:00:34;;;;;;;1999.90;999.90;;;;;;;;;;5080960;28;20048;-89
2023/09/16 05:03:00;;;;;;;1999.90;999.90;;;;;;;;;;5082286;28;20060;-89
2023/09/16 05:05:27;;;;;;;1999.90;999.90;;;;;;;;;;5081806;28;20059;-89
2023/09/16 05:07:53;;;;;;;1999.90;999.90;;;;;;;;;;5082230;28;20048;-91
2023/09/16 05:10:21;;;;;;;1999.90;999.90;;;;;;;;;;5082432;28;20053;-92
2023/09/16 05:12:48;;;;;;;1999.90;999.90;;;;;;;;;;5082361;28;20057;-91
2023/09/16 05:15:14;;;;;;;1999.90;999.90;;;;;;;;;;5081886;28;20045;-89
2023/09/16 05:17:41;;;;;;;1999.90;999.90;;;;;;;;;;5079919;28;20051;-89
2023/09/16 05:20:08;;;;;;;1999.90;999.90;;;;;;;;;;5081333;28;20045;-90
2023/09/16 05:22:35;;;;;;;1999.90;999.90;;;;;;;;;;5079343;28;20056;-90
2023/09/16 05:25:04;;;;;;;1999.90;999.90;;;;;;;;;;5083733;28;20389;-91
2023/09/16 05:27:32;;;;;;;1999.90;999.90;;;;;;;;;;5085012;28;20098;-91
2023/09/16 05:30:01;;;;;;;1999.90;999.90;;;;;;;;;;5086905;28;20055;-90
2023/09/16 05:32:28;;;;;;;1999.90;999.90;;;;;;;;;;5082475;28;20094;-90
2023/09/16 05:35:04;;;;;;;1999.90;999.90;;;;;;;;;;5083947;28;20058;-90
2023/09/16 05:37:31;;;;;;;1999.90;999.90;;;;;;;;;;5083126;28;20049;-91
2023/09/16 05:39:57;;;;;;;1999.90;999.90;;;;;;;;;;5065434;28;20055;-90
2023/09/16 05:42:24;;;;;;;1999.90;999.90;;;;;;;;;;5081805;28;20052;-92
2023/09/16 05:44:52;;;;;;;1999.90;999.90;;;;;;;;;;5079453;28;20041;-91
2023/09/16 05:47:18;;;;;;;1999.90;999.90;;;;;;;;;;5084857;28;20066;-90
2023/09/16 05:49:45;;;;;;;1999.90;999.90;;;;;;;;;;5082315;28;20139;-93
2023/09/16 05:52:11;;;;;;;1999.90;999.90;;;;;;;;;;5083886;28;20042;-91
2023/09/16 05:54:38;;;;;;;1999.90;999.90;;;;;;;;;;5079599;28;20052;-91
2023/09/16 05:57:05;;;;;;;1999.90;999.90;;;;;;;;;;5062335;28;20452;-92
2023/09/16 05:59:31;;;;;;;1999.90;999.90;;;;;;;;;;5082873;28;20051;-90
2023/09/16 06:01:59;;;;;;;1999.90;999.90;;;;;;;;;;5079619;28;20056;-90
2023/09/16 06:04:26;;;;;;;1999.90;999.90;;;;;;;;;;5076267;28;20052;-91
2023/09/16 06:06:52;;;;;;;1999.90;999.90;;;;;;;;;;5082868;28;20051;-87
2023/09/16 06:09:19;;;;;;;1999.90;999.90;;;;;;;;;;5086836;28;20048;-88
2023/09/16 06:11:45;;;;;;;1999.90;999.90;;;;;;;;;;5082457;28;20053;-89
2023/09/16 06:14:12;;;;;;;1999.90;999.90;;;;;;;;;;5080174;28;20044;-91
2023/09/16 06:16:39;;;;;;;1999.90;999.90;;;;;;;;;;5067928;28;20040;-90
2023/09/16 06:19:07;;;;;;;1999.90;999.90;;;;;;;;;;5083663;28;20054;-91
2023/09/16 06:21:33;;;;;;;1999.90;999.90;;;;;;;;;;5078485;28;20044;-92
2023/09/16 06:24:00;;;;;;;1999.90;999.90;;;;;;;;;;5084560;28;20050;-91
2023/09/16 06:26:27;;;;;;;1999.90;999.90;;;;;;;;;;5066589;28;20048;-90
2023/09/16 06:28:53;;;;;;;1999.90;999.90;;;;;;;;;;5079231;28;20047;-88
2023/09/16 06:31:20;;;;;;;1999.90;999.90;;;;;;;;;;5079225;28;20049;-88
2023/09/16 06:33:47;;;;;;;1999.90;999.90;;;;;;;;;;5065236;28;20048;-90
2023/09/16 06:36:24;;;;;;;1999.90;999.90;;;;;;;;;;5081051;28;20144;-88
2023/09/16 06:38:51;;;;;;;1999.90;999.90;;;;;;;;;;5080827;28;20056;-88
2023/09/16 06:41:18;;;;;;;1999.90;999.90;;;;;;;;;;5083819;28;20048;-87
2023/09/16 06:43:44;;;;;;;1999.90;999.90;;;;;;;;;;5076413;28;20058;-89
2023/09/16 06:46:11;;;;;;;1999.90;999.90;;;;;;;;;;5083375;28;20036;-88
2023/09/16 06:48:37;;;;;;;1999.90;999.90;;;;;;;;;;5078374;28;20063;-90
2023/09/16 06:51:04;;;;;;;1999.90;999.90;;;;;;;;;;5082794;28;20044;-87
2023/09/16 06:53:33;;;;;;;1999.90;999.90;;;;;;;;;;5083405;28;20048;-88
2023/09/16 06:56:00;;;;;;;1999.90;999.90;;;;;;;;;;5081555;28;20060;-87
2023/09/16 06:58:26;;;;;;;1999.90;999.90;;;;;;;;;;5076271;28;20677;-89
2023/09/16 07:00:53;;;;;;;1999.90;999.90;;;;;;;;;;5064090;28;20047;-87
2023/09/16 07:03:19;;;;;;;1999.90;999.90;;;;;;;;;;5084399;28;20066;-88
2023/09/16 07:05:52;;;;;;;1999.90;999.90;;;;;;;;;;5082052;28;20074;-88
2023/09/16 07:08:19;;;;;;;1999.90;999.90;;;;;;;;;;5083965;28;20051;-89
2023/09/16 07:10:47;;;;;;;1999.90;999.90;;;;;;;;;;5074754;28;20489;-89
2023/09/16 07:13:14;;;;;;;1999.90;999.90;;;;;;;;;;5082049;28;20563;-87
2023/09/16 07:15:40;;;;;;;1999.90;999.90;;;;;;;;;;5067891;28;20053;-88
2023/09/16 07:18:07;;;;;;;1999.90;999.90;;;;;;;;;;5082328;28;20507;-89
2023/09/16 07:20:34;;;;;;;1999.90;999.90;;;;;;;;;;5081075;28;20045;-88
2023/09/16 07:23:00;;;;;;;1999.90;999.90;;;;;;;;;;5087316;28;20054;-89
2023/09/16 07:25:27;;;;;;;1999.90;999.90;;;;;;;;;;5088883;28;20048;-90
2023/09/16 07:27:55;;;;;;;1999.90;999.90;;;;;;;;;;5085743;28;20036;-89
2023/09/16 07:30:22;;;;;;;1999.90;999.90;;;;;;;;;;5085183;28;20084;-90
2023/09/16 07:32:49;;;;;;;1999.90;999.90;;;;;;;;;;5090637;28;20048;-89
2023/09/16 07:35:19;;;;;;;1999.90;999.90;;;;;;;;;;5086861;28;20147;-90
2023/09/16 07:37:46;;;;;;;1999.90;999.90;;;;;;;;;;5082885;28;20044;-89
2023/09/16 07:40:13;;;;;;;1999.90;999.90;;;;;;;;;;5088734;28;20048;-90
2023/09/16 07:42:39;;;;;;;1999.90;999.90;;;;;;;;;;5085527;28;20078;-91
2023/09/16 07:45:09;;;;;;;1999.90;999.90;;;;;;;;;;5082253;28;20041;-89
2023/09/16 07:47:36;;;;;;;1999.90;999.90;;;;;;;;;;5083263;28;20048;-89
2023/09/16 07:50:03;;;;;;;1999.90;999.90;;;;;;;;;;5086845;28;20123;-90
2023/09/16 07:52:30;;;;;;;1999.90;999.90;;;;;;;;;;5085318;28;20060;-89
2023/09/16 07:54:59;;;;;;;1999.90;999.90;;;;;;;;;;5086573;28;20048;-91
2023/09/16 07:57:27;;;;;;;1999.90;999.90;;;;;;;;;;5067526;28;20056;-92
2023/09/16 07:59:54;;;;;;;1999.90;999.90;;;;;;;;;;5085693;28;20044;-92
2023/09/16 08:02:22;;;;;;;1999.90;999.90;;;;;;;;;;5081346;28;20385;-92
2023/09/16 08:04:49;;;;;;;1999.90;999.90;;;;;;;;;;5089975;28;20036;-95
2023/09/16 08:07:15;;;;;;;1999.90;999.90;;;;;;;;;;5083905;28;20052;-94
2023/09/16 08:09:42;;;;;;;1999.90;999.90;;;;;;;;;;5082057;28;20053;-95
2023/09/16 08:12:09;;;;;;;1999.90;999.90;;;;;;;;;;5086095;28;20047;-93
2023/09/16 08:14:35;;;;;;;1999.90;999.90;;;;;;;;;;5084230;28;20048;-94
2023/09/16 08:17:03;;;;;;;1999.90;999.90;;;;;;;;;;5083510;28;20044;-91
2023/09/16 08:19:31;;;;;;;1999.90;999.90;;;;;;;;;;5085119;28;20057;-93
2023/09/16 08:21:57;;;;;;;1999.90;999.90;;;;;;;;;;5080024;28;20071;-95
2023/09/16 08:24:24;;;;;;;1999.90;999.90;;;;;;;;;;5085537;28;20048;-93
2023/09/16 08:26:51;;;;;;;1999.90;999.90;;;;;;;;;;5083618;28;20127;-95
2023/09/16 08:29:18;;;;;;;1999.90;999.90;;;;;;;;;;5085961;28;20135;-93
2023/09/16 08:31:44;;;;;;;1999.90;999.90;;;;;;;;;;5085986;28;20040;-95
2023/09/16 08:34:11;;;;;;;1999.90;999.90;;;;;;;;;;5088071;28;20044;-89
2023/09/16 08:36:39;;;;;;;1999.90;999.90;;;;;;;;;;5079029;28;20056;-88
2023/09/16 08:39:05;;;;;;;1999.90;999.90;;;;;;;;;;5090834;28;20052;-86
2023/09/16 08:41:38;;;;;;;1999.90;999.90;;;;;;;;;;5085388;28;20056;-89
2023/09/16 08:44:06;;;;;;;1999.90;999.90;;;;;;;;;;5086178;28;20567;-90
2023/09/16 08:46:34;;;;;;;1999.90;999.90;;;;;;;;;;5078389;28;20044;-90
2023/09/16 08:49:03;;;;;;;1999.90;999.90;;;;;;;;;;5081405;28;20055;-89
2023/09/16 08:51:31;;;;;;;1999.90;999.90;;;;;;;;;;5086269;28;20051;-90
2023/09/16 08:54:00;;;;;;;1999.90;999.90;;;;;;;;;;5082521;28;20084;-88
2023/09/16 08:56:28;;;;;;;1999.90;999.90;;;;;;;;;;5083505;28;20098;-87
2023/09/16 08:58:55;;;;;;;1999.90;999.90;;;;;;;;;;5087893;28;20048;-87
2023/09/16 09:01:21;;;;;;;1999.90;999.90;;;;;;;;;;5081895;28;20119;-89
2023/09/16 09:03:48;;;;;;;1999.90;999.90;;;;;;;;;;5083190;28;20523;-89
2023/09/16 09:06:15;;;;;;;1999.90;999.90;;;;;;;;;;5078901;28;20049;-87
2023/09/16 09:08:41;;;;;;;1999.90;999.90;;;;;;;;;;5087789;28;20044;-88
2023/09/16 09:11:12;;;;;;;1999.90;999.90;;;;;;;;;;5087099;28;20078;-87
2023/09/16 09:13:40;;;;;;;1999.90;999.90;;;;;;;;;;5082246;28;20041;-88
2023/09/16 09:16:06;;;;;;;1999.90;999.90;;;;;;;;;;5080857;28;20458;-89
2023/09/16 09:18:34;;;;;;;1999.90;999.90;;;;;;;;;;5081397;28;20036;-86
2023/09/16 09:21:01;;;;;;;1999.90;999.90;;;;;;;;;;5086671;28;20075;-87
2023/09/16 09:23:27;;;;;;;1999.90;999.90;;;;;;;;;;5082505;28;20044;-86
2023/09/16 09:25:56;;;;;;;1999.90;999.90;;;;;;;;;;5079775;28;20162;-87
2023/09/16 09:28:24;;;;;;;1999.90;999.90;;;;;;;;;;5082737;28;20201;-87
2023/09/16 09:30:53;;;;;;;1999.90;999.90;;;;;;;;;;5084846;28;20044;-87
2023/09/16 09:33:21;;;;;;;1999.90;999.90;;;;;;;;;;5084847;28;20083;-89
2023/09/16 09:35:48;;;;;;;1999.90;999.90;;;;;;;;;;5077118;28;20074;-87
2023/09/16 09:38:15;;;;;;;1999.90;999.90;;;;;;;;;;5079165;28;20044;-89
2023/09/16 09:40:42;;;;;;;1999.90;999.90;;;;;;;;;;5084368;28;20047;-88
2023/09/16 09:43:09;;;;;;;1999.90;999.90;;;;;;;;;;5086009;28;20127;-88
2023/09/16 09:45:37;;;;;;;1999.90;999.90;;;;;;;;;;5072478;28;20051;-86
2023/09/16 09:48:04;;;;;;;1999.90;999.90;;;;;;;;;;5083745;28;20089;-86
2023/09/16 09:50:31;;;;;;;1999.90;999.90;;;;;;;;;;5083598;28;20070;-88
2023/09/16 09:53:00;;;;;;;1999.90;999.90;;;;;;;;;;5085895;28;20052;-86
2023/09/16 09:55:29;;;;;;;1999.90;999.90;;;;;;;;;;5083783;28;20054;-89
2023/09/16 09:57:56;;;;;;;1999.90;999.90;;;;;;;;;;5089598;28;20060;-90
2023/09/16 10:00:24;;;;;;;1999.90;999.90;;;;;;;;;;5082766;28;20094;-89
2023/09/16 10:02:52;;;;;;;1999.90;999.90;;;;;;;;;;5078265;28;20052;-86
2023/09/16 10:05:21;;;;;;;1999.90;999.90;;;;;;;;;;5084192;28;20515;-88
2023/09/16 10:07:48;;;;;;;1999.90;999.90;;;;;;;;;;5081252;28;20044;-90
2023/09/16 10:10:17;;;;;;;1999.90;999.90;;;;;;;;;;5077351;28;20485;-90
2023/09/16 10:12:44;;;;;;;1999.90;999.90;;;;;;;;;;5078599;28;20110;-89
2023/09/16 10:15:11;;;;;;;1999.90;999.90;;;;;;;;;;5082367;28;20044;-90
2023/09/16 10:17:38;;;;;;;1999.90;999.90;;;;;;;;;;5079916;28;20047;-90
2023/09/16 10:20:09;;;;;;;1999.90;999.90;;;;;;;;;;5082635;28;20048;-90
2023/09/16 10:22:36;;;;;;;1999.90;999.90;;;;;;;;;;5078364;28;20048;-89
2023/09/16 10:25:03;;;;;;;1999.90;999.90;;;;;;;;;;5081040;28;20052;-90
2023/09/16 10:27:33;;;;;;;1999.90;999.90;;;;;;;;;;5083635;28;20059;-90
2023/09/16 10:30:00;;;;;;;1999.90;999.90;;;;;;;;;;5074622;28;20044;-89
2023/09/16 10:32:27;;;;;;;1999.90;999.90;;;;;;;;;;5083740;28;20048;-90
2023/09/16 10:35:08;;;;;;;1999.90;999.90;;;;;;;;;;5081300;28;20518;-90
2023/09/16 10:37:36;;;;;;;1999.90;999.90;;;;;;;;;;5071957;28;20048;-89
2023/09/16 10:40:04;;;;;;;1999.90;999.90;;;;;;;;;;5082485;28;20040;-90
2023/09/16 10:42:33;;;;;;;1999.90;999.90;;;;;;;;;;5083679;28;20045;-90
2023/09/16 10:45:02;;;;;;;1999.90;999.90;;;;;;;;;;5084981;28;20057;-90
2023/09/16 10:47:29;;;;;;;1999.90;999.90;;;;;;;;;;5078070;28;20053;-90
2023/09/16 10:49:56;;;;;;;1999.90;999.90;;;;;;;;;;5077593;28;20048;-91
2023/09/16 10:52:30;;;;;;;1999.90;999.90;;;;;;;;;;5076140;28;20377;-91
2023/09/16 10:55:01;;;;;;;1999.90;999.90;;;;;;;;;;5078958;28;20045;-91
2023/09/16 10:57:33;;;;;;;1999.90;999.90;;;;;;;;;;5082300;28;20051;-91
2023/09/16 11:00:04;;;;;;;1999.90;999.90;;;;;;;;;;5087739;28;20059;-89
2023/09/16 11:02:34;;;;;;;1999.90;999.90;;;;;;;;;;5076986;28;20074;-91
2023/09/16 11:05:01;;;;;;;1999.90;999.90;;;;;;;;;;5082001;28;20413;-91
2023/09/16 11:07:29;;;;;;;1999.90;999.90;;;;;;;;;;5082799;28;20497;-91
2023/09/16 11:09:56;;;;;;;1999.90;999.90;;;;;;;;;;5076899;28;20486;-91
2023/09/16 11:12:23;;;;;;;1999.90;999.90;;;;;;;;;;5080097;28;20040;-90
2023/09/16 11:14:50;;;;;;;1999.90;999.90;;;;;;;;;;5079282;28;20928;-91
2023/09/16 11:17:17;;;;;;;1999.90;999.90;;;;;;;;;;5084193;28;20052;-90
2023/09/16 11:19:43;;;;;;;1999.90;999.90;;;;;;;;;;5084002;28;20052;-90
2023/09/16 11:22:10;;;;;;;1999.90;999.90;;;;;;;;;;5079199;28;20124;-90
2023/09/16 11:24:38;;;;;;;1999.90;999.90;;;;;;;;;;5077101;28;20470;-90
2023/09/16 11:27:06;;;;;;;1999.90;999.90;;;;;;;;;;5078625;28;20390;-90
2023/09/16 11:29:32;;;;;;;1999.90;999.90;;;;;;;;;;5078241;28;20494;-90
2023/09/16 11:32:01;;;;;;;1999.90;999.90;;;;;;;;;;5084183;28;20503;-90
2023/09/16 11:34:29;;;;;;;1999.90;999.90;;;;;;;;;;5082486;28;20051;-91
2023/09/16 11:36:58;;;;;;;1999.90;999.90;;;;;;;;;;5077176;28;20135;-90
2023/09/16 11:39:35;;;;;;;1999.90;999.90;;;;;;;;;;5082092;28;20098;-89
2023/09/16 11:42:04;;;;;;;1999.90;999.90;;;;;;;;;;5076171;28;20040;-87
2023/09/16 11:44:30;;;;;;;1999.90;999.90;;;;;;;;;;5078570;28;20052;-86
2023/09/16 11:46:58;;;;;;;1999.90;999.90;;;;;;;;;;5077076;28;20886;-91
2023/09/16 11:49:24;;;;;;;1999.90;999.90;;;;;;;;;;5084941;28;20051;-89
2023/09/16 11:51:51;;;;;;;1999.90;999.90;;;;;;;;;;5083511;28;20049;-89
2023/09/16 11:54:18;;;;;;;1999.90;999.90;;;;;;;;;;5081381;28;20072;-90
2023/09/16 11:56:45;;;;;;;1999.90;999.90;;;;;;;;;;5062956;28;20397;-91
2023/09/16 11:59:13;;;;;;;1999.90;999.90;;;;;;;;;;5083244;28;20569;-89
2023/09/16 12:01:42;;;;;;;1999.90;999.90;;;;;;;;;;5078078;28;20058;-89
2023/09/16 12:04:11;;;;;;;1999.90;999.90;;;;;;;;;;5075740;28;20079;-90
2023/09/16 12:06:43;;;;;;;1999.90;999.90;;;;;;;;;;5081824;28;20473;-91
2023/09/16 12:09:14;;;;;;;1999.90;999.90;;;;;;;;;;5078432;28;20044;-89
2023/09/16 12:11:40;;;;;;;1999.90;999.90;;;;;;;;;;5080775;28;20052;-91
2023/09/16 12:14:07;;;;;;;1999.90;999.90;;;;;;;;;;5084134;28;20040;-90
2023/09/16 12:16:36;;;;;;;1999.90;999.90;;;;;;;;;;5081147;28;20444;-90
2023/09/16 12:19:02;;;;;;;1999.90;999.90;;;;;;;;;;5090035;28;20044;-91
2023/09/16 12:21:29;;;;;;;1999.90;999.90;;;;;;;;;;5086641;28;20052;-89
2023/09/16 12:23:55;;;;;;;1999.90;999.90;;;;;;;;;;5083046;28;20048;-91
2023/09/16 12:26:22;;;;;;;1999.90;999.90;;;;;;;;;;5088449;28;20044;-91
2023/09/16 12:28:49;;;;;;;1999.90;999.90;;;;;;;;;;5084188;28;20054;-89
2023/09/16 12:31:21;;;;;;;1999.90;999.90;;;;;;;;;;5088228;28;20511;-90
2023/09/16 12:33:54;;;;;;;1999.90;999.90;;;;;;;;;;5084122;28;20049;-90
2023/09/16 12:36:22;;;;;;;1999.90;999.90;;;;;;;;;;5084970;28;20306;-87
2023/09/16 12:38:49;;;;;;;1999.90;999.90;;;;;;;;;;5083050;28;20148;-87
2023/09/16 12:41:16;;;;;;;1999.90;999.90;;;;;;;;;;5081825;28;20055;-90
2023/09/16 12:43:44;;;;;;;1999.90;999.90;;;;;;;;;;5081637;28;20052;-90
2023/09/16 12:46:11;;;;;;;1999.90;999.90;;;;;;;;;;5089142;28;20064;-90
2023/09/16 12:48:39;;;;;;;1999.90;999.90;;;;;;;;;;5079790;28;20044;-90
2023/09/16 12:51:07;;;;;;;1999.90;999.90;;;;;;;;;;5083955;28;20051;-88
2023/09/16 12:53:34;;;;;;;1999.90;999.90;;;;;;;;;;5085844;28;20054;-89
2023/09/16 12:56:02;;;;;;;1999.90;999.90;;;;;;;;;;5085964;28;20056;-90
2023/09/16 12:58:29;;;;;;;1999.90;999.90;;;;;;;;;;5087343;28;20557;-89
2023/09/16 13:00:56;;;;;;;1999.90;999.90;;;;;;;;;;5085691;28;20048;-90
2023/09/16 13:03:23;;;;;;;1999.90;999.90;;;;;;;;;;5061142;28;20048;-89
2023/09/16 13:06:18;;;;;;;1999.90;999.90;;;;;;;;;;5083995;28;20060;-91
2023/09/16 13:08:45;;;;;;;1999.90;999.90;;;;;;;;;;5092126;28;20051;-90
2023/09/16 13:11:12;;;;;;;1999.90;999.90;;;;;;;;;;5082961;28;20048;-88
2023/09/16 13:13:39;;;;;;;1999.90;999.90;;;;;;;;;;5084763;28;20477;-88
2023/09/16 13:16:07;;;;;;;1999.90;999.90;;;;;;;;;;5085820;28;20048;-91
2023/09/16 13:18:36;;;;;;;1999.90;999.90;;;;;;;;;;5080897;28;20139;-91
2023/09/16 13:21:03;;;;;;;1999.90;999.90;;;;;;;;;;5066874;28;20123;-91
2023/09/16 13:23:33;;;;;;;1999.90;999.90;;;;;;;;;;5054513;28;20052;-90
2023/09/16 13:26:09;;;;;;;1999.90;999.90;;;;;;;;;;5081852;28;20559;-91
2023/09/16 13:28:35;;;;;;;1999.90;999.90;;;;;;;;;;5074596;28;20052;-90
2023/09/16 13:31:02;;;;;;;1999.90;999.90;;;;;;;;;;5074311;28;20044;-93
2023/09/16 13:33:45;;;;;;;1999.90;999.90;;;;;;;;;;5085920;28;20052;-89
2023/09/16 13:36:12;;;;;;;1999.90;999.90;;;;;;;;;;5081822;28;20039;-83
2023/09/16 13:38:40;;;;;;;1999.90;999.90;;;;;;;;;;5087168;28;20059;-87
2023/09/16 13:41:06;;;;;;;1999.90;999.90;;;;;;;;;;5081460;28;20047;-88
2023/09/16 13:43:35;;;;;;;1999.90;999.90;;;;;;;;;;5086955;28;20049;-86